»·PEaware :: N172CM KBLI-KOLM

N172CM :: KBLI-KOLM

FLIGHT INFORMATION

Flight Status: Arrived
Operator: Privately registered:
United States
More flights under this callsign
Pilot: John F. (11196)
Aircraft: CESSNA 172 SKYHAWK
(C172)
More flights by this aircraft type
Origin: KBLI Bellingham Intl
United States
Destination: KOLM Olympia
United States
More flights between these airports :: More routes between these airports
Route: CVV V165 OLM
File this flight plan on PilotEdge
Remarks:
Altitude:
(Current/Filed)
6,000ft
Speed:
(Current/Filed)
110kts
Departed: 18-Feb-23 12:53 PM
Arrived: 18-Feb-23 01:57 PM
Distance/Time
Traveled:
110nm/1:04
Distance/Time
To Go:
Arrived

Flight Plot

Page will automatically refresh every two minutes.

Flight plan parsing failed; only flown route is shown


Map Options




Map Legend


Flown Route
Filed Route
Departure Airport
Arrival Airport
Navaid (VOR, NDB)
Fix

Horizontal Profiles

Position Reports

Time Latitude Longitude Heading Altitude Ground
Speed
18-Feb-23 12:27 48.793555 -122.532150 141 171ft 0kts
18-Feb-23 12:28 48.793555 -122.532150 141 171ft 0kts
18-Feb-23 12:29 48.793555 -122.532150 141 171ft 0kts
18-Feb-23 12:30 48.793555 -122.532150 141 171ft 0kts
18-Feb-23 12:31 48.793555 -122.532150 141 171ft 0kts
18-Feb-23 12:32 48.793555 -122.532150 141 171ft 0kts
18-Feb-23 12:33 48.793555 -122.532150 141 171ft 0kts
18-Feb-23 12:34 48.793555 -122.532150 141 171ft 0kts
18-Feb-23 12:35 48.793555 -122.532150 141 171ft 0kts
18-Feb-23 12:36 48.793542 -122.532134 140 171ft 0kts
18-Feb-23 12:37 48.793346 -122.533722 268 171ft 5kts
18-Feb-23 12:38 48.797826 -122.535836 0 171ft 21kts
18-Feb-23 12:39 48.801121 -122.536290 146 171ft 0kts
18-Feb-23 12:40 48.801121 -122.536290 146 171ft 0kts
18-Feb-23 12:41 48.801112 -122.536281 146 171ft 0kts
18-Feb-23 12:42 48.801112 -122.536281 146 171ft 0kts
18-Feb-23 12:43 48.801112 -122.536281 146 171ft 0kts
18-Feb-23 12:44 48.801112 -122.536281 146 171ft 0kts
18-Feb-23 12:45 48.801112 -122.536281 146 171ft 0kts
18-Feb-23 12:46 48.801112 -122.536281 146 171ft 0kts
18-Feb-23 12:47 48.801112 -122.536281 146 171ft 0kts
18-Feb-23 12:48 48.801762 -122.536278 288 171ft 0kts
18-Feb-23 12:49 48.801762 -122.536278 289 171ft 0kts
18-Feb-23 12:50 48.801762 -122.536278 289 171ft 0kts
18-Feb-23 12:51 48.801762 -122.536278 289 171ft 0kts
18-Feb-23 12:52 48.792584 -122.537825 178 506ft 62kts
18-Feb-23 12:53 48.776039 -122.547404 213 1299ft 80kts
18-Feb-23 12:54 48.755671 -122.565049 202 2101ft 87kts
18-Feb-23 12:55 48.734942 -122.581199 179 2932ft 80kts
18-Feb-23 12:56 48.709358 -122.579740 176 3455ft 97kts
18-Feb-23 12:57 48.684706 -122.579285 178 4274ft 82kts
18-Feb-23 12:58 48.661717 -122.579897 190 5024ft 81kts
18-Feb-23 12:59 48.639029 -122.587347 193 5712ft 83kts
18-Feb-23 13:00 48.616267 -122.595249 194 6390ft 84kts
18-Feb-23 13:01 48.592919 -122.603422 195 6990ft 91kts
18-Feb-23 13:02 48.563215 -122.613860 195 7009ft 114kts
18-Feb-23 13:03 48.532100 -122.624722 195 7009ft 113kts
18-Feb-23 13:04 48.501156 -122.635506 196 7010ft 114kts
18-Feb-23 13:05 48.469802 -122.646433 196 7009ft 114kts
18-Feb-23 13:06 48.438497 -122.657321 196 7009ft 114kts
18-Feb-23 13:07 48.407147 -122.668211 196 7009ft 114kts
18-Feb-23 13:08 48.375704 -122.679119 196 7009ft 114kts
18-Feb-23 13:09 48.344437 -122.689952 196 7009ft 114kts
18-Feb-23 13:10 48.313011 -122.700828 196 7009ft 114kts
18-Feb-23 13:11 48.281787 -122.711623 196 7009ft 115kts
18-Feb-23 13:12 48.250330 -122.722480 196 7009ft 115kts
18-Feb-23 13:13 48.218203 -122.728093 189 7009ft 115kts
18-Feb-23 13:14 48.185875 -122.732785 189 7009ft 115kts
18-Feb-23 13:15 48.153712 -122.737393 189 7004ft 116kts
18-Feb-23 13:16 48.121300 -122.742012 189 7000ft 115kts
18-Feb-23 13:17 48.088999 -122.746605 189 7000ft 115kts
18-Feb-23 13:18 48.056852 -122.751167 189 7000ft 115kts
18-Feb-23 13:20 48.024690 -122.755732 189 7000ft 115kts
18-Feb-23 13:21 47.992442 -122.760247 190 7000ft 116kts
18-Feb-23 13:22 47.960326 -122.764800 190 7002ft 115kts
18-Feb-23 13:23 47.928256 -122.769351 190 7004ft 115kts
18-Feb-23 13:24 47.895917 -122.773916 190 6973ft 118kts
18-Feb-23 13:25 47.862971 -122.778591 190 6469ft 114kts
18-Feb-23 13:26 47.831608 -122.783016 189 5969ft 111kts
18-Feb-23 13:27 47.800605 -122.787370 188 5469ft 111kts
18-Feb-23 13:28 47.769467 -122.791743 187 5022ft 113kts
18-Feb-23 13:29 47.739603 -122.795875 188 5008ft 103kts
18-Feb-23 13:30 47.709662 -122.800066 187 5011ft 114kts
18-Feb-23 13:31 47.677551 -122.804541 187 5009ft 116kts
18-Feb-23 13:32 47.644861 -122.809139 187 4620ft 116kts
18-Feb-23 13:33 47.612976 -122.813607 187 4118ft 113kts
18-Feb-23 13:34 47.583450 -122.817704 186 3997ft 97kts
18-Feb-23 13:35 47.554823 -122.821667 186 4004ft 114kts
18-Feb-23 13:36 47.523166 -122.826048 186 3999ft 111kts
18-Feb-23 13:37 47.492260 -122.830342 186 4006ft 111kts
18-Feb-23 13:38 47.460805 -122.834696 186 4012ft 113kts
18-Feb-23 13:39 47.429211 -122.839069 186 4019ft 114kts
18-Feb-23 13:40 47.397724 -122.843423 186 4027ft 114kts
18-Feb-23 13:41 47.366137 -122.847785 186 4034ft 114kts
18-Feb-23 13:42 47.334589 -122.852126 187 4036ft 114kts
18-Feb-23 13:43 47.302950 -122.856495 187 4036ft 114kts
18-Feb-23 13:44 47.271492 -122.854504 176 3687ft 109kts
18-Feb-23 13:44 47.246934 -122.851064 176 3263ft 104kts
18-Feb-23 13:45 47.219000 -122.847067 175 3035ft 96kts
18-Feb-23 13:47 47.185311 -122.842250 175 3036ft 107kts
18-Feb-23 13:48 47.157171 -122.848953 194 2524ft 95kts
18-Feb-23 13:49 47.133117 -122.856413 192 2434ft 84kts
18-Feb-23 13:49 47.114123 -122.862023 191 2436ft 83kts
18-Feb-23 13:50 47.090810 -122.868873 191 2435ft 85kts
18-Feb-23 13:51 47.066384 -122.876050 192 2020ft 86kts
18-Feb-23 13:52 47.043664 -122.882720 192 1584ft 81kts
18-Feb-23 13:53 47.022132 -122.889013 191 1156ft 77kts
18-Feb-23 13:54 47.001098 -122.895165 191 752ft 77kts
18-Feb-23 13:55 46.980033 -122.901365 191 333ft 73kts
18-Feb-23 13:56 46.968316 -122.904710 190 211ft 32kts
18-Feb-23 13:57 46.967234 -122.903799 88 211ft 0kts
18-Feb-23 13:58 46.967448 -122.901009 13 211ft 11kts
18-Feb-23 13:59 46.971292 -122.898295 48 211ft 16kts
18-Feb-23 14:00 46.972823 -122.894977 335 211ft 0kts

Navigation Log

Ident Type
Flight plan parsing failed, navigation log unavailable